Time;durP1;ratioP1;P1;durP2;ratioP2;P2;SDS_P1;SDS_P2;PMS_P1;PMS_P2;Temp;Humidity;BMP_temperature;BMP_pressure;BME280_temperature;BME280_humidity;BME280_pressure;Samples;Min_cycle;Max_cycle;Signal;HPM_P1;HPM_P2
2023/10/10 00:02:18;;;;;;;10.50;10.20;;;14.70;99.90;;;;;;5125183;27;20224;-79
2023/10/10 00:04:47;;;;;;;10.30;10.00;;;14.60;99.90;;;;;;5125403;27;20225;-79
2023/10/10 00:07:17;;;;;;;10.40;10.10;;;14.60;99.90;;;;;;5125278;27;20240;-79
2023/10/10 00:09:47;;;;;;;10.05;9.75;;;14.50;99.90;;;;;;5125413;27;20284;-78
2023/10/10 00:12:18;;;;;;;10.20;9.90;;;14.50;99.90;;;;;;5125088;27;20255;-80
2023/10/10 00:14:50;;;;;;;10.17;9.87;;;14.50;99.90;;;;;;5125031;27;20256;-79
2023/10/10 00:20:16;;;;;;;10.18;9.88;;;14.50;99.90;;;;;;5125756;27;20224;-79
2023/10/10 00:22:46;;;;;;;10.20;9.90;;;14.50;99.90;;;;;;5127296;27;20221;-79
2023/10/10 00:25:23;;;;;;;10.10;9.80;;;14.60;99.90;;;;;;5127616;27;20220;-79
2023/10/10 00:27:58;;;;;;;10.15;9.85;;;14.60;99.90;;;;;;5126077;27;20232;-78
2023/10/10 00:30:33;;;;;;;10.43;10.13;;;14.60;99.90;;;;;;5125481;27;20232;-79
2023/10/10 00:33:05;;;;;;;10.80;10.50;;;14.60;99.90;;;;;;5124590;27;20232;-79
2023/10/10 00:35:33;;;;;;;10.70;10.40;;;14.60;99.90;;;;;;5124486;27;20236;-79
2023/10/10 00:38:05;;;;;;;10.40;10.10;;;14.60;99.90;;;;;;5124284;27;20228;-79
2023/10/10 00:43:14;;;;;;;10.00;9.70;;;14.60;99.90;;;;;;5118750;27;20242;-79
2023/10/10 00:45:42;;;;;;;9.98;9.68;;;14.60;99.90;;;;;;5125875;27;20236;-78
2023/10/10 00:48:16;;;;;;;10.27;9.98;;;14.60;99.90;;;;;;5127780;27;20240;-80
2023/10/10 00:50:46;;;;;;;10.00;9.70;;;14.60;99.90;;;;;;5128221;27;20228;-80
2023/10/10 00:53:15;;;;;;;10.30;10.00;;;14.70;99.90;;;;;;5126980;27;20221;-79
2023/10/10 00:55:47;;;;;;;10.00;9.70;;;14.70;99.90;;;;;;5127301;27;20238;-80
2023/10/10 00:58:22;;;;;;;9.65;9.35;;;14.70;99.90;;;;;;5127179;27;20236;-80
2023/10/10 01:00:52;;;;;;;9.77;9.48;;;14.60;99.90;;;;;;5127062;27;20238;-78
2023/10/10 01:03:30;;;;;;;10.10;9.80;;;14.60;99.90;;;;;;5126292;27;20232;-80
2023/10/10 01:05:58;;;;;;;10.00;9.70;;;14.60;99.90;;;;;;5125479;27;20331;-78
2023/10/10 01:08:26;;;;;;;10.00;9.70;;;14.70;99.90;;;;;;5126592;27;20284;-79
2023/10/10 01:11:00;;;;;;;10.10;9.80;;;14.60;99.90;;;;;;5127192;27;20311;-79
2023/10/10 01:13:30;;;;;;;10.00;9.70;;;14.60;99.90;;;;;;5127272;28;20212;-80
2023/10/10 01:16:05;;;;;;;9.60;9.30;;;14.60;99.90;;;;;;5130767;27;21073;-80
2023/10/10 01:18:41;;;;;;;9.90;9.60;;;14.60;99.90;;;;;;5130133;27;20224;-79
2023/10/10 01:21:18;;;;;;;9.95;9.65;;;14.60;99.90;;;;;;5120958;28;20239;-80
2023/10/10 01:23:47;;;;;;;9.68;9.38;;;14.60;99.90;;;;;;5128077;27;20266;-80
2023/10/10 01:26:16;;;;;;;9.77;9.48;;;14.60;99.90;;;;;;5128758;27;20225;-80
2023/10/10 01:28:59;;;;;;;10.05;9.75;;;14.50;99.90;;;;;;5129184;27;20232;-79
2023/10/10 01:31:30;;;;;;;9.77;9.48;;;14.60;99.90;;;;;;5129107;27;20225;-80
2023/10/10 01:34:00;;;;;;;9.90;9.60;;;14.50;99.90;;;;;;5128207;27;20216;-79
2023/10/10 01:36:30;;;;;;;9.60;9.30;;;14.50;99.90;;;;;;5130295;27;20260;-79
2023/10/10 01:39:21;;;;;;;9.70;9.40;;;14.50;99.90;;;;;;5129310;27;20532;-80
2023/10/10 01:41:50;;;;;;;9.70;9.40;;;14.50;99.90;;;;;;5128501;27;20236;-79
2023/10/10 01:44:19;;;;;;;9.90;9.60;;;14.50;99.90;;;;;;5128584;27;20233;-79
2023/10/10 01:46:47;;;;;;;9.73;9.43;;;14.50;99.90;;;;;;5129767;27;20233;-79
2023/10/10 01:49:19;;;;;;;9.80;9.50;;;14.50;99.90;;;;;;5128074;27;20241;-79
2023/10/10 01:54:40;;;;;;;9.75;9.45;;;14.50;99.90;;;;;;5125642;27;20239;-79
2023/10/10 01:57:21;;;;;;;9.77;9.48;;;14.50;99.90;;;;;;5126222;27;20233;-79
2023/10/10 01:59:51;;;;;;;9.40;9.10;;;14.50;99.90;;;;;;5120737;27;20237;-80
2023/10/10 02:02:23;;;;;;;9.68;9.38;;;14.50;99.90;;;;;;5120876;27;20241;-80
2023/10/10 02:04:52;;;;;;;10.23;9.93;;;14.50;99.90;;;;;;5115568;28;20236;-80
2023/10/10 02:07:31;;;;;;;10.43;10.13;;;14.50;99.90;;;;;;5126358;27;20237;-79
2023/10/10 02:12:53;;;;;;;10.48;10.18;;;14.40;99.90;;;;;;5125858;27;20247;-80
2023/10/10 02:15:26;;;;;;;10.30;10.00;;;14.30;99.90;;;;;;5121423;27;20224;-79
2023/10/10 02:17:54;;;;;;;10.20;9.90;;;14.30;99.90;;;;;;5125178;27;20232;-79
2023/10/10 02:20:49;;;;;;;10.10;9.80;;;14.30;99.90;;;;;;5126403;27;20260;-79
2023/10/10 02:23:34;;;;;;;10.17;9.87;;;14.20;99.90;;;;;;5126078;27;20237;-80
2023/10/10 02:26:14;;;;;;;10.18;9.88;;;14.20;99.90;;;;;;5126380;27;20303;-80
2023/10/10 02:31:41;;;;;;;10.00;9.70;;;14.00;99.90;;;;;;5127253;27;20224;-80
2023/10/10 02:34:10;;;;;;;9.77;9.47;;;13.90;99.90;;;;;;5129226;27;20232;-79
2023/10/10 02:36:41;;;;;;;10.00;9.70;;;13.90;99.90;;;;;;5127386;27;20225;-78
2023/10/10 02:39:29;;;;;;;10.20;9.90;;;13.80;99.90;;;;;;5126150;27;20237;-79
2023/10/10 02:44:46;;;;;;;10.00;9.70;;;13.70;99.90;;;;;;5125551;27;20224;-79
2023/10/10 02:47:14;;;;;;;9.70;9.40;;;13.70;99.90;;;;;;5125708;28;20236;-80
2023/10/10 02:49:42;;;;;;;9.90;9.60;;;13.70;99.90;;;;;;5127124;27;20227;-79
2023/10/10 02:52:14;;;;;;;9.90;9.60;;;13.60;99.90;;;;;;5127552;27;20235;-80
2023/10/10 02:54:53;;;;;;;9.87;9.57;;;13.60;99.90;;;;;;5127202;27;20247;-79
2023/10/10 02:57:31;;;;;;;10.50;10.20;;;13.60;99.90;;;;;;5126055;27;20232;-80
2023/10/10 03:00:15;;;;;;;10.43;10.13;;;13.60;99.90;;;;;;5126798;27;20232;-79
2023/10/10 03:02:53;;;;;;;10.17;9.87;;;13.60;99.90;;;;;;5126717;28;20256;-79
2023/10/10 03:05:38;;;;;;;10.03;9.73;;;13.50;99.90;;;;;;5126016;27;20225;-79
2023/10/10 03:08:12;;;;;;;10.33;10.03;;;13.50;99.90;;;;;;5125591;27;20259;-79
2023/10/10 03:10:53;;;;;;;10.00;9.70;;;13.50;99.90;;;;;;5125187;27;20216;-80
2023/10/10 03:13:36;;;;;;;9.90;9.60;;;13.50;99.90;;;;;;5129319;27;20229;-80
2023/10/10 03:16:41;;;;;;;10.10;9.80;;;13.50;99.90;;;;;;5127619;27;20233;-79
2023/10/10 03:19:26;;;;;;;9.70;9.40;;;13.50;99.90;;;;;;5125597;27;20248;-80
2023/10/10 03:22:22;;;;;;;9.50;9.20;;;13.50;99.90;;;;;;5125593;27;20217;-80
2023/10/10 03:30:20;;;;;;;9.70;9.40;;;13.50;99.90;;;;;;5129151;28;20229;-79
2023/10/10 03:33:09;;;;;;;9.50;9.20;;;13.50;99.90;;;;;;5129017;27;20217;-80
2023/10/10 03:35:59;;;;;;;9.70;9.40;;;13.50;99.90;;;;;;5129301;27;20233;-78
2023/10/10 03:38:43;;;;;;;9.30;9.00;;;13.50;99.90;;;;;;5129425;27;20233;-79
2023/10/10 05:23:29;;;;;;;9.40;9.10;;;13.50;99.90;;;;;;5129144;27;20245;-80
2023/10/10 05:25:06;;;;;;;10.30;10.00;;;12.30;99.90;;;;;;5121753;27;20198;-85
2023/10/10 05:30:23;;;;;;;10.20;9.90;;;12.30;99.90;;;;;;5116568;28;20239;-88
2023/10/10 05:33:00;;;;;;;9.80;9.50;;;12.30;99.90;;;;;;5117902;28;20398;-85
2023/10/10 05:35:33;;;;;;;9.70;9.40;;;12.30;99.90;;;;;;5115176;28;20226;-85
2023/10/10 05:38:07;;;;;;;9.60;9.30;;;12.40;99.90;;;;;;5109286;27;20285;-86
2023/10/10 05:46:25;;;;;;;9.90;9.60;;;12.40;99.90;;;;;;5106848;28;20235;-86
2023/10/10 05:56:25;;;;;;;9.83;9.53;;;12.50;99.90;;;;;;5107029;28;20205;-85
2023/10/10 05:59:13;;;;;;;9.90;9.60;;;12.50;99.90;;;;;;5099565;28;20287;-85
2023/10/10 06:09:18;;;;;;;9.67;9.37;;;12.50;99.90;;;;;;5085100;28;20280;-87
2023/10/10 06:12:13;;;;;;;9.80;9.50;;;12.50;99.90;;;;;;5087500;28;20226;-87
2023/10/10 06:15:16;;;;;;;9.90;9.60;;;12.50;99.90;;;;;;5087843;28;20230;-85
2023/10/10 06:18:09;;;;;;;9.90;9.60;;;12.50;99.90;;;;;;5086484;28;20226;-87
2023/10/10 06:21:02;;;;;;;9.90;9.60;;;12.50;99.90;;;;;;5087523;28;20242;-86
2023/10/10 06:23:36;;;;;;;9.60;9.30;;;12.50;99.90;;;;;;5092691;28;20234;-86
2023/10/10 06:29:48;;;;;;;9.30;9.00;;;12.50;99.90;;;;;;5092769;28;20228;-87
2023/10/10 06:33:08;;;;;;;9.33;9.03;;;12.60;99.90;;;;;;5093074;28;20224;-86
2023/10/10 06:42:47;;;;;;;9.70;9.40;;;12.80;99.90;;;;;;5082179;28;20232;-86
2023/10/10 06:45:36;;;;;;;9.60;9.30;;;12.80;99.90;;;;;;5085235;28;20230;-87
2023/10/10 06:48:56;;;;;;;9.67;9.37;;;12.90;99.90;;;;;;5084924;28;20234;-87
2023/10/10 06:57:45;;;;;;;10.10;9.80;;;13.20;99.90;;;;;;5106274;28;20232;-87
2023/10/10 07:01:04;;;;;;;10.33;10.03;;;13.20;99.90;;;;;;5084973;28;20236;-87
2023/10/10 07:04:19;;;;;;;9.93;9.63;;;13.30;99.90;;;;;;5086511;28;20276;-87
2023/10/10 07:07:26;;;;;;;9.97;9.67;;;13.40;99.90;;;;;;5025747;28;20232;-88
2023/10/10 07:16:56;;;;;;;10.40;10.10;;;13.70;99.90;;;;;;4967087;28;20222;-88
2023/10/10 07:23:36;;;;;;;;;;;;;;;;;;;;;
2023/10/10 07:32:16;;;;;;;10.50;10.20;;;14.10;99.90;;;;;;5087127;28;20226;-87
2023/10/10 07:34:55;;;;;;;10.10;9.80;;;14.10;99.90;;;;;;5088054;28;20329;-87
2023/10/10 07:38:35;;;;;;;10.23;9.93;;;14.20;99.90;;;;;;5087975;28;20233;-87
2023/10/10 07:44:26;;;;;;;10.40;10.10;;;14.50;99.90;;;;;;5088936;28;20230;-89
2023/10/10 07:49:50;;;;;;;10.82;10.52;;;14.80;99.90;;;;;;5088399;28;20207;-87
2023/10/10 07:52:26;;;;;;;10.70;10.40;;;14.90;99.90;;;;;;5087907;28;20237;-86
2023/10/10 07:55:03;;;;;;;10.30;10.00;;;15.00;99.90;;;;;;5087810;28;20230;-86
2023/10/10 08:03:19;;;;;;;10.32;10.02;;;15.40;99.90;;;;;;5111436;28;20328;-87
2023/10/10 08:05:57;;;;;;;10.30;10.00;;;15.50;99.90;;;;;;5128697;28;20297;-86
2023/10/10 08:08:25;;;;;;;10.10;9.80;;;15.70;99.90;;;;;;5128666;28;20220;-86
2023/10/10 08:11:06;;;;;;;10.32;10.02;;;15.90;99.90;;;;;;5128133;27;20221;-87
2023/10/10 08:13:51;;;;;;;10.50;10.20;;;16.10;99.90;;;;;;5127903;27;20246;-87
2023/10/10 08:16:22;;;;;;;10.15;9.85;;;16.20;99.90;;;;;;5128338;28;20243;-85
2023/10/10 08:19:04;;;;;;;10.32;10.02;;;16.40;99.90;;;;;;5128902;27;20213;-86
2023/10/10 08:21:38;;;;;;;10.60;10.30;;;16.60;99.90;;;;;;5133696;27;20209;-82
2023/10/10 08:24:15;;;;;;;10.40;10.10;;;16.80;99.90;;;;;;5137827;28;20287;-85
2023/10/10 08:26:44;;;;;;;10.63;10.32;;;17.00;99.90;;;;;;5133386;28;20263;-86
2023/10/10 08:29:15;;;;;;;10.15;9.85;;;17.20;99.90;;;;;;5132760;28;20292;-87
2023/10/10 08:31:43;;;;;;;10.20;9.90;;;17.40;99.90;;;;;;5129379;28;20271;-85
2023/10/10 08:35:08;;;;;;;9.98;9.68;;;17.60;99.90;;;;;;5128990;28;20229;-87
2023/10/10 08:37:36;;;;;;;10.02;9.73;;;17.70;99.90;;;;;;5124697;27;20229;-85
2023/10/10 08:40:17;;;;;;;9.98;9.68;;;18.00;99.90;;;;;;5127795;28;20270;-85
2023/10/10 08:45:43;;;;;;;10.27;9.98;;;18.50;99.90;;;;;;5112819;27;20243;-86
2023/10/10 08:58:51;;;;;;;10.32;10.02;;;19.40;99.90;;;;;;5113719;28;20229;-85
2023/10/10 09:35:58;;;;;;;10.80;10.50;;;21.60;99.90;;;;;;4853012;29;20321;-90
2023/10/10 09:38:35;;;;;;;10.50;10.20;;;21.80;99.90;;;;;;4958862;28;20248;-90
2023/10/10 09:41:36;;;;;;;10.50;10.20;;;22.00;99.90;;;;;;5107420;28;20241;-91
2023/10/10 09:44:53;;;;;;;10.40;10.10;;;22.20;99.90;;;;;;5108194;28;20221;-90
2023/10/10 09:53:22;;;;;;;10.40;10.10;;;22.80;99.90;;;;;;5109109;28;20217;-89
2023/10/10 09:56:01;;;;;;;10.40;10.10;;;22.80;99.90;;;;;;5107002;28;20229;-89
2023/10/10 09:58:41;;;;;;;10.40;10.10;;;23.00;99.90;;;;;;5107924;28;20236;-89
2023/10/10 10:02:40;;;;;;;10.38;10.07;;;23.10;99.90;;;;;;5108660;28;20237;-92
2023/10/10 10:05:28;;;;;;;10.50;10.20;;;23.30;99.90;;;;;;5038619;28;20235;-89
2023/10/10 10:11:11;;;;;;;10.57;10.27;;;24.00;99.90;;;;;;5110243;22;20272;-80
2023/10/10 10:13:57;;;;;;;10.48;10.18;;;24.30;99.90;;;;;;5085431;28;20234;-80
2023/10/10 10:16:37;;;;;;;10.52;10.23;;;24.50;99.90;;;;;;5085709;28;20238;-81
2023/10/10 10:22:08;;;;;;;10.80;10.50;;;25.00;99.90;;;;;;5159803;27;20532;-79
2023/10/10 10:25:10;;;;;;;11.00;10.70;;;25.40;99.90;;;;;;5141339;27;20231;-78
2023/10/10 10:28:00;;;;;;;11.10;10.80;;;25.80;99.90;;;;;;5141842;27;20239;-79
2023/10/10 10:30:46;;;;;;;10.73;10.43;;;26.00;99.90;;;;;;5142743;27;20243;-79
2023/10/10 10:33:26;;;;;;;10.73;10.43;;;26.30;99.90;;;;;;5145420;27;20232;-79
2023/10/10 10:36:14;;;;;;;10.60;10.30;;;26.30;99.90;;;;;;5143462;27;20295;-80
2023/10/10 10:39:21;;;;;;;10.50;10.20;;;26.30;99.90;;;;;;5147469;27;20319;-80
2023/10/10 10:41:53;;;;;;;10.68;10.38;;;26.30;99.90;;;;;;5146988;27;20337;-80
2023/10/10 10:47:54;;;;;;;10.70;10.40;;;26.30;99.90;;;;;;5147730;27;20315;-80
2023/10/10 10:53:50;;;;;;;10.70;10.40;;;26.90;99.90;;;;;;5147686;27;20224;-81
2023/10/10 10:56:41;;;;;;;10.57;10.27;;;27.10;99.90;;;;;;5147311;27;20232;-81
2023/10/10 10:59:12;;;;;;;10.70;10.40;;;27.20;99.90;;;;;;5147068;27;20232;-81
2023/10/10 11:04:44;;;;;;;10.43;10.13;;;26.90;99.90;;;;;;5145748;27;20204;-84
2023/10/10 11:10:06;;;;;;;10.60;10.30;;;27.10;99.90;;;;;;5144600;27;20292;-82
2023/10/10 11:12:40;;;;;;;10.73;10.43;;;27.20;99.90;;;;;;5142351;27;20258;-83
2023/10/10 11:15:10;;;;;;;10.77;10.48;;;27.50;99.90;;;;;;5145401;27;20220;-82
2023/10/10 11:17:48;;;;;;;10.70;10.40;;;27.80;99.90;;;;;;5144442;27;20224;-84
2023/10/10 11:23:11;;;;;;;10.60;10.30;;;28.40;99.90;;;;;;5135349;27;20258;-84
2023/10/10 11:25:46;;;;;;;10.50;10.20;;;28.50;99.90;;;;;;5143221;27;20278;-80
2023/10/10 11:28:36;;;;;;;10.57;10.27;;;28.40;99.90;;;;;;5144419;27;20285;-79
2023/10/10 11:31:06;;;;;;;10.55;10.25;;;28.20;99.90;;;;;;5141938;27;20235;-79
2023/10/10 11:33:48;;;;;;;10.77;10.48;;;28.20;99.90;;;;;;5126804;28;20232;-78
2023/10/10 11:36:29;;;;;;;10.65;10.35;;;28.30;99.90;;;;;;5127892;28;20240;-78
2023/10/10 11:39:17;;;;;;;10.77;10.48;;;28.20;99.90;;;;;;5127321;28;20299;-79
2023/10/10 11:41:46;;;;;;;10.90;10.60;;;28.30;99.90;;;;;;5127405;28;20239;-80
2023/10/10 11:44:24;;;;;;;10.90;10.60;;;28.30;99.90;;;;;;5127775;28;20247;-79
2023/10/10 11:47:02;;;;;;;10.93;10.63;;;28.20;99.90;;;;;;5126831;28;20220;-79
2023/10/10 11:49:32;;;;;;;10.88;10.57;;;28.00;99.90;;;;;;5127734;28;20296;-78
2023/10/10 11:52:01;;;;;;;10.80;10.50;;;27.90;99.90;;;;;;5127485;27;20263;-79
2023/10/10 11:54:30;;;;;;;10.75;10.45;;;28.20;99.90;;;;;;5127416;28;20276;-79
2023/10/10 11:56:59;;;;;;;10.80;10.50;;;28.20;99.90;;;;;;5128045;28;20213;-79
2023/10/10 11:59:32;;;;;;;10.73;10.43;;;28.30;99.90;;;;;;5128111;28;20228;-79
2023/10/10 12:02:13;;;;;;;10.88;10.57;;;28.20;99.90;;;;;;5127575;28;20244;-79
2023/10/10 12:04:44;;;;;;;10.75;10.45;;;27.90;99.90;;;;;;5127637;28;20247;-80
2023/10/10 12:07:14;;;;;;;10.85;10.55;;;27.90;99.90;;;;;;5127746;28;20302;-79
2023/10/10 12:10:07;;;;;;;10.70;10.40;;;28.20;99.90;;;;;;5124836;28;20251;-78
2023/10/10 12:12:34;;;;;;;10.70;10.40;;;28.30;99.90;;;;;;5125333;28;20241;-78
2023/10/10 12:15:04;;;;;;;10.82;10.52;;;28.30;99.90;;;;;;5126698;28;20217;-80
2023/10/10 12:17:32;;;;;;;10.70;10.40;;;28.40;99.90;;;;;;5126617;28;20225;-78
2023/10/10 12:19:59;;;;;;;10.73;10.43;;;28.40;99.90;;;;;;5126303;28;20243;-79
2023/10/10 12:22:26;;;;;;;10.75;10.45;;;28.50;99.90;;;;;;5124908;28;20228;-79
2023/10/10 12:24:54;;;;;;;10.68;10.38;;;28.70;99.90;;;;;;5124973;28;20256;-79
2023/10/10 12:27:29;;;;;;;10.70;10.40;;;28.90;99.90;;;;;;5124358;28;20308;-79
2023/10/10 12:29:57;;;;;;;10.80;10.50;;;29.20;99.90;;;;;;5125040;28;20224;-78
2023/10/10 12:32:28;;;;;;;10.95;10.65;;;29.50;99.90;;;;;;5124868;28;20310;-79
2023/10/10 12:35:00;;;;;;;10.82;10.52;;;29.80;99.90;;;;;;5125070;28;20225;-79
2023/10/10 12:37:28;;;;;;;10.70;10.40;;;30.20;99.90;;;;;;5125305;28;20221;-79
2023/10/10 12:40:07;;;;;;;10.55;10.25;;;30.20;99.90;;;;;;5126014;28;20235;-79
2023/10/10 12:42:36;;;;;;;10.70;10.40;;;30.30;99.90;;;;;;5124373;28;20236;-78
2023/10/10 12:45:05;;;;;;;10.82;10.52;;;30.50;99.90;;;;;;5123496;28;20252;-79
2023/10/10 12:47:38;;;;;;;11.00;10.70;;;30.60;99.90;;;;;;5125566;28;20284;-78
2023/10/10 12:50:13;;;;;;;10.90;10.60;;;30.70;99.90;;;;;;5125089;28;20224;-79
2023/10/10 12:52:45;;;;;;;10.88;10.57;;;30.90;99.90;;;;;;5124563;28;20252;-79
2023/10/10 12:55:12;;;;;;;11.13;10.82;;;31.00;99.90;;;;;;5124199;28;20225;-79
2023/10/10 12:57:41;;;;;;;10.80;10.50;;;31.10;99.90;;;;;;5123751;28;20233;-78
2023/10/10 13:00:33;;;;;;;10.90;10.60;;;31.20;99.90;;;;;;5124525;27;20231;-79
2023/10/10 13:03:01;;;;;;;10.82;10.52;;;31.30;99.90;;;;;;5124282;28;20288;-79
2023/10/10 13:05:28;;;;;;;10.80;10.50;;;31.40;99.90;;;;;;5124790;28;20247;-79
2023/10/10 13:07:58;;;;;;;10.80;10.50;;;31.60;99.90;;;;;;5124798;28;20220;-78
2023/10/10 13:10:27;;;;;;;10.88;10.57;;;31.50;99.90;;;;;;5124204;28;20236;-79
2023/10/10 13:12:55;;;;;;;10.85;10.55;;;31.50;99.90;;;;;;5123543;28;20240;-78
2023/10/10 13:15:29;;;;;;;10.90;10.60;;;31.30;99.90;;;;;;5125818;28;20233;-79
2023/10/10 13:20:51;;;;;;;10.98;10.68;;;31.40;99.90;;;;;;5220912;27;20592;-79
2023/10/10 13:23:20;;;;;;;11.00;10.70;;;31.50;99.90;;;;;;5183219;27;20294;-79
2023/10/10 13:25:49;;;;;;;10.98;10.68;;;31.70;99.90;;;;;;5183064;27;20254;-80
2023/10/10 13:28:20;;;;;;;10.80;10.50;;;32.00;99.90;;;;;;5182834;27;20271;-79
2023/10/10 13:30:48;;;;;;;10.90;10.60;;;32.40;99.90;;;;;;5183077;27;20234;-79
2023/10/10 13:33:16;;;;;;;10.80;10.50;;;32.50;99.90;;;;;;5182945;27;20258;-80
2023/10/10 13:35:44;;;;;;;10.90;10.60;;;32.40;99.90;;;;;;5182499;27;20770;-79
2023/10/10 13:38:14;;;;;;;10.68;10.38;;;32.40;99.90;;;;;;5182434;27;20226;-80
2023/10/10 13:40:46;;;;;;;11.00;10.70;;;32.70;99.90;;;;;;5181463;27;20277;-79
2023/10/10 13:43:16;;;;;;;10.93;10.63;;;32.90;99.90;;;;;;5182079;27;20227;-80
2023/10/10 13:45:45;;;;;;;11.10;10.80;;;32.90;99.90;;;;;;5181363;27;20226;-79
2023/10/10 13:48:18;;;;;;;11.15;10.85;;;32.90;99.90;;;;;;5182196;27;20313;-79
2023/10/10 13:50:46;;;;;;;11.20;10.90;;;33.10;99.90;;;;;;5181335;27;20330;-79
2023/10/10 13:53:15;;;;;;;11.20;10.90;;;32.90;99.90;;;;;;5181226;27;20231;-78
2023/10/10 13:55:44;;;;;;;10.90;10.60;;;32.50;99.90;;;;;;5181434;27;20239;-79
2023/10/10 13:58:13;;;;;;;10.55;10.25;;;32.50;99.90;;;;;;5181117;27;20222;-80
2023/10/10 14:00:52;;;;;;;10.70;10.40;;;32.10;99.90;;;;;;5180270;27;20325;-78
2023/10/10 14:03:28;;;;;;;10.50;10.20;;;31.60;99.90;;;;;;5180563;27;20237;-79
2023/10/10 14:06:10;;;;;;;10.60;10.30;;;31.40;99.90;;;;;;5180701;27;20226;-79
2023/10/10 14:08:43;;;;;;;10.70;10.40;;;31.30;99.90;;;;;;5181111;27;20215;-79
2023/10/10 14:11:20;;;;;;;10.80;10.50;;;31.20;99.90;;;;;;5180924;27;20226;-79
2023/10/10 14:13:50;;;;;;;10.52;10.23;;;31.20;99.90;;;;;;5180772;27;20237;-79
2023/10/10 14:16:19;;;;;;;10.80;10.50;;;31.30;99.90;;;;;;5180337;27;20235;-78
2023/10/10 14:18:49;;;;;;;10.70;10.40;;;31.30;99.90;;;;;;5180310;27;20258;-79
2023/10/10 14:21:24;;;;;;;11.10;10.80;;;31.30;99.90;;;;;;5174964;27;20325;-79
2023/10/10 14:24:04;;;;;;;10.93;10.63;;;31.20;99.90;;;;;;5180303;27;20237;-77
2023/10/10 14:26:43;;;;;;;11.18;10.88;;;31.00;99.90;;;;;;5184998;27;20234;-85
2023/10/10 14:31:58;;;;;;;10.60;10.30;;;30.60;99.90;;;;;;5172687;27;20230;-85
2023/10/10 14:34:26;;;;;;;10.60;10.30;;;30.60;99.90;;;;;;5162376;27;20236;-84
2023/10/10 14:36:55;;;;;;;10.50;10.20;;;30.40;99.90;;;;;;5167576;27;20216;-85
2023/10/10 14:39:44;;;;;;;10.60;10.30;;;30.30;99.90;;;;;;5169692;27;20227;-86
2023/10/10 14:42:18;;;;;;;10.45;10.15;;;30.20;99.90;;;;;;5169852;27;20261;-88
2023/10/10 14:44:49;;;;;;;10.40;10.10;;;29.80;99.90;;;;;;5165504;27;20239;-87
2023/10/10 14:47:29;;;;;;;9.90;9.60;;;29.50;99.90;;;;;;5166057;27;20253;-88
2023/10/10 14:50:06;;;;;;;10.30;10.00;;;29.20;99.90;;;;;;5168487;27;20318;-86
2023/10/10 14:52:40;;;;;;;10.40;10.10;;;28.80;99.90;;;;;;5168792;27;20230;-84
2023/10/10 14:55:23;;;;;;;10.50;10.20;;;28.50;99.90;;;;;;5164626;27;20234;-85
2023/10/10 14:57:54;;;;;;;10.52;10.23;;;28.30;99.90;;;;;;5168607;27;20223;-84
2023/10/10 15:00:24;;;;;;;10.50;10.20;;;28.20;99.90;;;;;;5156101;27;20254;-84
2023/10/10 15:02:53;;;;;;;10.50;10.20;;;28.20;99.90;;;;;;5156241;27;20232;-84
2023/10/10 15:05:23;;;;;;;10.90;10.60;;;28.10;99.90;;;;;;5169510;27;20248;-86
2023/10/10 15:07:52;;;;;;;10.70;10.40;;;28.00;99.90;;;;;;5170704;27;20230;-85
2023/10/10 15:10:25;;;;;;;10.60;10.30;;;27.90;99.90;;;;;;5163886;27;20222;-86
2023/10/10 15:15:47;;;;;;;;;;;;;;;;;;;;;
2023/10/10 15:18:25;;;;;;;10.60;10.30;;;27.40;99.90;;;;;;5167209;27;20230;-89
2023/10/10 15:20:52;;;;;;;10.50;10.20;;;27.50;99.90;;;;;;5166262;27;20231;-82
2023/10/10 15:23:22;;;;;;;10.60;10.30;;;27.60;99.90;;;;;;5164522;27;20231;-82
2023/10/10 15:26:05;;;;;;;10.57;10.27;;;27.70;99.90;;;;;;5148603;27;20258;-82
2023/10/10 15:31:25;;;;;;;10.50;10.20;;;28.00;99.90;;;;;;5147787;27;20216;-81
2023/10/10 15:33:54;;;;;;;10.20;9.90;;;28.10;99.90;;;;;;5160619;27;20276;-83
2023/10/10 15:36:23;;;;;;;10.40;10.10;;;28.20;99.90;;;;;;5169524;27;20223;-82
2023/10/10 15:38:51;;;;;;;10.00;9.70;;;28.50;99.90;;;;;;5169883;27;20279;-84
2023/10/10 15:41:31;;;;;;;9.95;9.65;;;28.70;99.90;;;;;;5168468;27;20242;-82
2023/10/10 15:44:02;;;;;;;9.90;9.60;;;28.70;99.90;;;;;;5169102;27;20231;-82
2023/10/10 15:46:32;;;;;;;9.77;9.48;;;28.50;99.90;;;;;;5170419;27;20227;-82
2023/10/10 15:49:02;;;;;;;10.05;9.75;;;28.40;99.90;;;;;;5170474;27;20219;-81
2023/10/10 15:51:34;;;;;;;10.10;9.80;;;28.10;99.90;;;;;;5170287;27;20220;-81
2023/10/10 15:54:02;;;;;;;10.20;9.90;;;27.70;99.90;;;;;;5170599;27;20227;-81
2023/10/10 15:56:34;;;;;;;10.00;9.70;;;27.30;99.90;;;;;;5170662;27;20255;-81
2023/10/10 16:01:46;;;;;;;10.02;9.73;;;26.80;99.90;;;;;;5167646;27;20322;-82
2023/10/10 16:04:14;;;;;;;9.98;9.68;;;26.40;99.90;;;;;;5168986;27;20236;-81
2023/10/10 16:06:46;;;;;;;9.93;9.63;;;26.20;99.90;;;;;;5173066;27;20249;-81
2023/10/10 16:09:19;;;;;;;10.05;9.75;;;26.00;99.90;;;;;;5170969;27;20219;-83
2023/10/10 16:22:59;;;;;;;9.90;9.60;;;25.10;99.90;;;;;;5777879;22;20223;-85
2023/10/10 16:25:38;;;;;;;9.73;9.43;;;25.10;99.90;;;;;;5148995;27;20266;-85
2023/10/10 16:28:09;;;;;;;9.70;9.40;;;24.90;99.90;;;;;;5148674;27;20251;-87
2023/10/10 16:30:38;;;;;;;9.70;9.40;;;24.80;99.90;;;;;;5148322;27;20220;-89
2023/10/10 16:33:10;;;;;;;9.85;9.55;;;24.60;99.90;;;;;;5148101;27;20220;-88
2023/10/10 16:41:13;;;;;;;9.70;9.40;;;24.20;99.90;;;;;;5149780;27;20319;-89
2023/10/10 16:43:41;;;;;;;9.68;9.38;;;23.90;99.90;;;;;;5158815;27;20313;-88
2023/10/10 16:46:12;;;;;;;9.80;9.50;;;23.80;99.90;;;;;;5151060;27;20228;-87
2023/10/10 17:00:21;;;;;;;8.90;8.70;;;22.80;99.90;;;;;;5109725;28;20280;-89
2023/10/10 17:05:40;;;;;;;9.40;9.10;;;22.40;99.90;;;;;;5105150;28;20233;-87
2023/10/10 17:08:12;;;;;;;9.00;8.80;;;22.20;99.90;;;;;;5110138;28;20228;-87
2023/10/10 17:27:12;;;;;;;8.70;8.50;;;21.10;99.90;;;;;;5133605;27;20255;-86
2023/10/10 17:29:41;;;;;;;8.80;8.60;;;20.90;99.90;;;;;;5129647;27;20251;-86
2023/10/10 17:32:15;;;;;;;8.70;8.50;;;20.80;99.90;;;;;;5129919;27;20225;-87
2023/10/10 17:34:50;;;;;;;8.70;8.50;;;20.70;99.90;;;;;;5121678;28;20320;-87
2023/10/10 17:42:53;;;;;;;8.50;8.30;;;20.40;99.90;;;;;;5099572;27;20206;-88
2023/10/10 17:45:21;;;;;;;8.90;8.70;;;20.20;99.90;;;;;;5101786;27;20413;-88
2023/10/10 17:48:14;;;;;;;8.50;8.30;;;20.10;99.90;;;;;;5094448;28;20230;-90
2023/10/10 17:50:46;;;;;;;8.40;8.20;;;20.00;99.90;;;;;;5086068;28;20294;-88
2023/10/10 17:53:16;;;;;;;8.32;8.13;;;19.90;99.90;;;;;;5112219;28;20238;-88
2023/10/10 17:59:00;;;;;;;8.50;8.30;;;19.60;99.90;;;;;;5110221;27;20226;-88
2023/10/10 18:01:29;;;;;;;8.43;8.23;;;19.40;99.90;;;;;;5113817;28;20216;-88
2023/10/10 18:03:57;;;;;;;8.50;8.30;;;19.20;99.90;;;;;;5103625;28;20225;-86
2023/10/10 18:06:27;;;;;;;8.20;8.00;;;19.10;99.90;;;;;;5093585;28;20240;-86
2023/10/10 18:09:00;;;;;;;8.32;8.13;;;19.00;99.90;;;;;;5075835;28;20290;-87
2023/10/10 18:14:23;;;;;;;8.40;8.20;;;18.70;99.90;;;;;;5094404;28;20312;-87
2023/10/10 18:16:51;;;;;;;8.40;8.20;;;18.60;99.90;;;;;;5071257;28;20234;-86
2023/10/10 18:19:21;;;;;;;8.20;8.00;;;18.50;99.90;;;;;;5070506;28;20227;-86
2023/10/10 18:21:52;;;;;;;8.30;8.10;;;18.40;99.90;;;;;;5082687;28;20226;-87
2023/10/10 18:24:27;;;;;;;8.45;8.25;;;18.20;99.90;;;;;;5095571;28;20237;-88
2023/10/10 18:27:17;;;;;;;8.30;8.10;;;18.10;99.90;;;;;;5086013;28;20230;-87
2023/10/10 18:29:48;;;;;;;8.18;7.97;;;18.00;99.90;;;;;;5089990;28;20235;-88
2023/10/10 18:32:17;;;;;;;8.35;8.15;;;17.90;99.90;;;;;;5076701;28;20286;-88
2023/10/10 18:34:46;;;;;;;8.43;8.23;;;17.80;99.90;;;;;;5094515;28;20279;-86
2023/10/10 18:37:16;;;;;;;8.40;8.20;;;17.70;99.90;;;;;;5094633;27;20230;-87
2023/10/10 18:39:44;;;;;;;8.30;8.10;;;17.70;99.90;;;;;;5098823;28;20261;-87
2023/10/10 18:45:31;;;;;;;8.57;8.38;;;17.40;99.90;;;;;;5108365;28;20293;-90
2023/10/10 18:48:05;;;;;;;8.65;8.45;;;17.40;99.90;;;;;;5090313;28;20290;-88
2023/10/10 18:50:38;;;;;;;8.40;8.20;;;17.30;99.90;;;;;;5097588;27;20226;-88
2023/10/10 18:53:07;;;;;;;8.68;8.48;;;17.30;99.90;;;;;;5089247;28;20270;-87
2023/10/10 19:01:26;;;;;;;8.88;8.68;;;17.00;99.90;;;;;;5085593;28;20218;-86
2023/10/10 19:03:58;;;;;;;9.15;8.88;;;16.90;99.90;;;;;;5107370;28;20236;-87
2023/10/10 19:09:12;;;;;;;9.05;8.85;;;16.70;99.90;;;;;;5101629;27;20289;-89
2023/10/10 19:11:43;;;;;;;9.00;8.80;;;16.50;99.90;;;;;;5093629;28;20226;-88
2023/10/10 19:19:37;;;;;;;9.05;8.85;;;16.10;99.90;;;;;;5085935;28;20229;-87
2023/10/10 19:22:05;;;;;;;9.20;8.90;;;16.00;99.90;;;;;;5091590;27;20241;-86